Aviation Digital Data Service (ADDS)

Output produced by METARs form (0031 UTC 20 August 2017)
found at http://aviationweather.gov/adds/metars/
 
KPHF 192326Z 2000/2024 VRB03KT P6SM SKC 
     FM200900 VRB03KT 4SM BR SKC 
     FM201200 32004KT P6SM SKC 
     FM201600 04005KT P6SM SCT050 
     FM202100 09004KT P6SM SKC